BISN16 CYTR-CYTR
Flight info
| Callsign | BISN16 |
|---|---|
| Flight time | 0h 23m |
| Altitude | 21000 |
| Route | UTR243025 DCT UTR215025 DCT UTR180020 DCT UTR120025 DCT UTR067025 |
| Aircraft | C17/H-SDE1E2FGHIJ5RTUWXY/LB1D1 |
Departure
| Time | 2026-05-04 01:08 |
|---|---|
| Airport | CFB Trenton (CYTR) |
Arrival
| Time | 2026-05-04 01:31 |
|---|---|
| Airport | CFB Trenton (CYTR) |
| Time | Latitude | Longitude | Altitude | Speed | Heading |
|---|---|---|---|---|---|
| 2026-05-04 00:42 | 44.11302 | -77.52851 | 276 ft | 0 kts | 164° |
| 2026-05-04 00:54 | 44.11297 | -77.52843 | 276 ft | 2 kts | 120° |
| 2026-05-04 00:55 | 44.11311 | -77.52824 | 281 ft | 6 kts | 20° |
| 2026-05-04 00:55 | 44.11317 | -77.52821 | 278 ft | 0 kts | 20° |
| 2026-05-04 00:55 | 44.11326 | -77.52817 | 276 ft | 6 kts | 20° |
| 2026-05-04 00:56 | 44.11344 | -77.52807 | 276 ft | 5 kts | 20° |
| 2026-05-04 00:57 | 44.11354 | -77.52802 | 276 ft | 6 kts | 20° |
| 2026-05-04 00:57 | 44.11438 | -77.52778 | 276 ft | 19 kts | 6° |
| 2026-05-04 00:57 | 44.11560 | -77.52756 | 277 ft | 13 kts | 9° |
| 2026-05-04 00:58 | 44.11624 | -77.52743 | 277 ft | 7 kts | 8° |
| 2026-05-04 00:58 | 44.11718 | -77.52724 | 277 ft | 8 kts | 9° |
| 2026-05-04 00:58 | 44.11780 | -77.52703 | 277 ft | 18 kts | 27° |
| 2026-05-04 00:58 | 44.11896 | -77.52534 | 280 ft | 27 kts | 51° |
| 2026-05-04 00:59 | 44.12045 | -77.52284 | 280 ft | 28 kts | 50° |
| 2026-05-04 00:59 | 44.12067 | -77.52247 | 280 ft | 0 kts | 50° |
| 2026-05-04 00:59 | 44.12086 | -77.52215 | 280 ft | 7 kts | 50° |
| 2026-05-04 00:59 | 44.12103 | -77.52187 | 280 ft | 1 kts | 51° |
| 2026-05-04 01:01 | 44.12124 | -77.52151 | 281 ft | 11 kts | 51° |
| 2026-05-04 01:01 | 44.12194 | -77.52029 | 280 ft | 16 kts | 51° |
| 2026-05-04 01:01 | 44.12252 | -77.51937 | 285 ft | 10 kts | 48° |
| 2026-05-04 01:01 | 44.12293 | -77.51863 | 284 ft | 12 kts | 52° |
| 2026-05-04 01:02 | 44.12367 | -77.51738 | 282 ft | 20 kts | 52° |
| 2026-05-04 01:02 | 44.12432 | -77.51642 | 284 ft | 10 kts | 37° |
| 2026-05-04 01:02 | 44.12474 | -77.51618 | 283 ft | 2 kts | 10° |
| 2026-05-04 01:02 | 44.12476 | -77.51618 | 283 ft | 0 kts | 8° |
| 2026-05-04 01:06 | 44.12481 | -77.51617 | 286 ft | 4 kts | 9° |
| 2026-05-04 01:06 | 44.12546 | -77.51625 | 283 ft | 10 kts | 335° |
| 2026-05-04 01:06 | 44.12573 | -77.51679 | 285 ft | 3 kts | 259° |
| 2026-05-04 01:06 | 44.12562 | -77.51707 | 282 ft | 1 kts | 233° |
| 2026-05-04 01:07 | 44.12509 | -77.51802 | 281 ft | 46 kts | 231° |
| 2026-05-04 01:07 | 44.12124 | -77.52453 | 282 ft | 124 kts | 230° |
| 2026-05-04 01:08 | 44.11449 | -77.53619 | 324 ft | 193 kts | 230° |
| 2026-05-04 01:08 | 44.10510 | -77.55222 | 1120 ft | 219 kts | 232° |
| 2026-05-04 01:08 | 44.09551 | -77.56876 | 2509 ft | 231 kts | 235° |
| 2026-05-04 01:08 | 44.08548 | -77.58635 | 3099 ft | 239 kts | 236° |
| 2026-05-04 01:09 | 44.07456 | -77.60619 | 3798 ft | 283 kts | 237° |
| 2026-05-04 01:09 | 44.06189 | -77.63038 | 4340 ft | 320 kts | 238° |
| 2026-05-04 01:09 | 44.05094 | -77.65224 | 7210 ft | 235 kts | 241° |
| 2026-05-04 01:09 | 44.04162 | -77.67103 | 7805 ft | 249 kts | 242° |
| 2026-05-04 01:10 | 44.03110 | -77.69277 | 8219 ft | 294 kts | 242° |
| 2026-05-04 01:10 | 44.01915 | -77.71815 | 8848 ft | 331 kts | 240° |
| 2026-05-04 01:10 | 44.00343 | -77.74403 | 9670 ft | 367 kts | 231° |
| 2026-05-04 01:10 | 43.98518 | -77.76894 | 10452 ft | 360 kts | 229° |
| 2026-05-04 01:11 | 43.96731 | -77.79202 | 11124 ft | 342 kts | 228° |
| 2026-05-04 01:11 | 43.94983 | -77.81340 | 11667 ft | 328 kts | 226° |
| 2026-05-04 01:11 | 43.93258 | -77.83334 | 12190 ft | 318 kts | 225° |
| 2026-05-04 01:11 | 43.91565 | -77.85179 | 12599 ft | 310 kts | 224° |
| 2026-05-04 01:12 | 43.89927 | -77.87039 | 12949 ft | 296 kts | 236° |
| 2026-05-04 01:12 | 43.88700 | -77.89270 | 13267 ft | 287 kts | 238° |
| 2026-05-04 01:12 | 43.87272 | -77.91214 | 13494 ft | 296 kts | 216° |
| 2026-05-04 01:12 | 43.85254 | -77.91977 | 13671 ft | 311 kts | 186° |
| 2026-05-04 01:13 | 43.83122 | -77.91328 | 13824 ft | 323 kts | 156° |
| 2026-05-04 01:13 | 43.81375 | -77.89340 | 13881 ft | 331 kts | 133° |
| 2026-05-04 01:13 | 43.79918 | -77.86864 | 14084 ft | 328 kts | 128° |
| 2026-05-04 01:13 | 43.78591 | -77.84336 | 14456 ft | 320 kts | 127° |
| 2026-05-04 01:14 | 43.77318 | -77.81951 | 15091 ft | 295 kts | 129° |
| 2026-05-04 01:14 | 43.76116 | -77.79799 | 15743 ft | 269 kts | 130° |
| 2026-05-04 01:14 | 43.75030 | -77.77850 | 16294 ft | 243 kts | 128° |
| 2026-05-04 01:14 | 43.74226 | -77.75742 | 16357 ft | 266 kts | 97° |
| 2026-05-04 01:15 | 43.74231 | -77.73040 | 16239 ft | 303 kts | 77° |
| 2026-05-04 01:15 | 43.74625 | -77.70048 | 16626 ft | 331 kts | 76° |
| 2026-05-04 01:15 | 43.75071 | -77.66775 | 17064 ft | 361 kts | 76° |
| 2026-05-04 01:15 | 43.75562 | -77.63214 | 17575 ft | 391 kts | 76° |
| 2026-05-04 01:16 | 43.76098 | -77.59386 | 18107 ft | 419 kts | 76° |
| 2026-05-04 01:16 | 43.76682 | -77.55282 | 18555 ft | 448 kts | 76° |
| 2026-05-04 01:16 | 43.77300 | -77.50982 | 19074 ft | 451 kts | 76° |
| 2026-05-04 01:16 | 43.77877 | -77.46909 | 19439 ft | 414 kts | 76° |
| 2026-05-04 01:17 | 43.78431 | -77.43152 | 19616 ft | 383 kts | 74° |
| 2026-05-04 01:17 | 43.78992 | -77.39661 | 19689 ft | 363 kts | 74° |
| 2026-05-04 01:17 | 43.79355 | -77.37403 | 19710 ft | 363 kts | 73° |
| 2026-05-04 01:17 | 43.80255 | -77.34162 | 19704 ft | 362 kts | 52° |
| 2026-05-04 01:18 | 43.81839 | -77.31384 | 19855 ft | 378 kts | 43° |
| 2026-05-04 01:18 | 43.83630 | -77.28630 | 20138 ft | 386 kts | 44° |
| 2026-05-04 01:18 | 43.85293 | -77.25674 | 20392 ft | 392 kts | 51° |
| 2026-05-04 01:18 | 43.86771 | -77.22513 | 20971 ft | 388 kts | 52° |
| 2026-05-04 01:19 | 43.88255 | -77.19276 | 21120 ft | 408 kts | 53° |
| 2026-05-04 01:19 | 43.89757 | -77.15972 | 21109 ft | 401 kts | 53° |
| 2026-05-04 01:19 | 43.91227 | -77.12727 | 21063 ft | 395 kts | 53° |
| 2026-05-04 01:19 | 43.92672 | -77.09533 | 21040 ft | 397 kts | 53° |
| 2026-05-04 01:20 | 43.94141 | -77.06287 | 21012 ft | 398 kts | 53° |
| 2026-05-04 01:20 | 43.95614 | -77.03030 | 21012 ft | 396 kts | 53° |
| 2026-05-04 01:20 | 43.97076 | -76.99793 | 21015 ft | 396 kts | 53° |
| 2026-05-04 01:20 | 43.98545 | -76.96545 | 21007 ft | 396 kts | 51° |
| 2026-05-04 01:21 | 44.00386 | -76.93821 | 21024 ft | 381 kts | 27° |
| 2026-05-04 01:21 | 44.02768 | -76.92467 | 21028 ft | 365 kts | 2° |
| 2026-05-04 01:21 | 44.05261 | -76.92521 | 21037 ft | 357 kts | 347° |
| 2026-05-04 01:21 | 44.07650 | -76.93332 | 21023 ft | 350 kts | 335° |
| 2026-05-04 01:22 | 44.09907 | -76.94564 | 21001 ft | 347 kts | 334° |
| 2026-05-04 01:22 | 44.12141 | -76.95746 | 21009 ft | 348 kts | 337° |
| 2026-05-04 01:22 | 44.14484 | -76.96683 | 21001 ft | 352 kts | 341° |
| 2026-05-04 01:22 | 44.16869 | -76.97490 | 21017 ft | 352 kts | 341° |
| 2026-05-04 01:23 | 44.19222 | -76.98394 | 21002 ft | 350 kts | 339° |
| 2026-05-04 01:23 | 44.21553 | -76.99367 | 21002 ft | 349 kts | 339° |
| 2026-05-04 01:23 | 44.23901 | -77.00307 | 20995 ft | 351 kts | 340° |
| 2026-05-04 01:23 | 44.26181 | -77.01444 | 21006 ft | 346 kts | 328° |
| 2026-05-04 01:24 | 44.28122 | -77.03356 | 21007 ft | 340 kts | 314° |
| 2026-05-04 01:24 | 44.29621 | -77.05871 | 20997 ft | 337 kts | 302° |
| 2026-05-04 01:24 | 44.30737 | -77.08823 | 19604 ft | 340 kts | 291° |
| 2026-05-04 01:24 | 44.31242 | -77.11756 | 17748 ft | 287 kts | 276° |
| 2026-05-04 01:25 | 44.31242 | -77.14421 | 16569 ft | 275 kts | 270° |
| 2026-05-04 01:25 | 44.30998 | -77.17106 | 15378 ft | 295 kts | 259° |
| 2026-05-04 01:25 | 44.30268 | -77.19917 | 14290 ft | 314 kts | 248° |
| 2026-05-04 01:25 | 44.29039 | -77.22506 | 13128 ft | 334 kts | 238° |
| 2026-05-04 01:26 | 44.27610 | -77.25086 | 12201 ft | 336 kts | 237° |
| 2026-05-04 01:26 | 44.26300 | -77.27410 | 11589 ft | 259 kts | 238° |
| 2026-05-04 01:26 | 44.25284 | -77.29137 | 11136 ft | 223 kts | 239° |
| 2026-05-04 01:26 | 44.24299 | -77.30819 | 10617 ft | 222 kts | 239° |
| 2026-05-04 01:27 | 44.23359 | -77.32507 | 10166 ft | 219 kts | 240° |
| 2026-05-04 01:27 | 44.22428 | -77.34180 | 9722 ft | 217 kts | 240° |
| 2026-05-04 01:27 | 44.21445 | -77.35745 | 8745 ft | 223 kts | 233° |
| 2026-05-04 01:27 | 44.20413 | -77.37158 | 7756 ft | 193 kts | 234° |
| 2026-05-04 01:28 | 44.19530 | -77.38433 | 6894 ft | 175 kts | 237° |
| 2026-05-04 01:28 | 44.18767 | -77.39661 | 5958 ft | 164 kts | 241° |
| 2026-05-04 01:28 | 44.18150 | -77.40948 | 4990 ft | 157 kts | 245° |
| 2026-05-04 01:28 | 44.17614 | -77.42170 | 4118 ft | 137 kts | 245° |
| 2026-05-04 01:29 | 44.17144 | -77.43319 | 3068 ft | 134 kts | 246° |
| 2026-05-04 01:29 | 44.16701 | -77.44424 | 2260 ft | 126 kts | 243° |
| 2026-05-04 01:29 | 44.16224 | -77.45440 | 1768 ft | 125 kts | 238° |
| 2026-05-04 01:29 | 44.15696 | -77.46347 | 1393 ft | 123 kts | 233° |
| 2026-05-04 01:30 | 44.15080 | -77.47357 | 1197 ft | 146 kts | 232° |
| 2026-05-04 01:30 | 44.14447 | -77.48456 | 956 ft | 144 kts | 232° |
| 2026-05-04 01:30 | 44.13830 | -77.49553 | 727 ft | 137 kts | 231° |
| 2026-05-04 01:30 | 44.13270 | -77.50521 | 518 ft | 124 kts | 227° |
| 2026-05-04 01:31 | 44.12725 | -77.51435 | 333 ft | 126 kts | 229° |
| 2026-05-04 01:31 | 44.12180 | -77.52366 | 280 ft | 103 kts | 230° |
| 2026-05-04 01:31 | 44.11863 | -77.52903 | 276 ft | 37 kts | 230° |
| 2026-05-04 01:31 | 44.11765 | -77.53070 | 274 ft | 19 kts | 232° |
| 2026-05-04 01:32 | 44.11696 | -77.53179 | 275 ft | 12 kts | 228° |
| 2026-05-04 01:32 | 44.11624 | -77.53193 | 275 ft | 11 kts | 136° |
| 2026-05-04 01:32 | 44.11601 | -77.53145 | 275 ft | 0 kts | 122° |
| 2026-05-04 01:33 | 44.11598 | -77.53139 | 275 ft | 2 kts | 122° |
| 2026-05-04 01:33 | 44.11596 | -77.53135 | 275 ft | 1 kts | 122° |
| 2026-05-04 01:33 | 44.11567 | -77.53070 | 279 ft | 7 kts | 99° |
| 2026-05-04 01:33 | 44.11570 | -77.53054 | 276 ft | 0 kts | 53° |
| 2026-05-04 01:34 | 44.11590 | -77.53038 | 276 ft | 12 kts | 31° |
| 2026-05-04 01:34 | 44.11666 | -77.52929 | 276 ft | 15 kts | 52° |
| 2026-05-04 01:34 | 44.11722 | -77.52834 | 277 ft | 11 kts | 50° |
| 2026-05-04 01:34 | 44.11757 | -77.52772 | 277 ft | 6 kts | 54° |
| 2026-05-04 01:35 | 44.11764 | -77.52746 | 277 ft | 2 kts | 97° |
| 2026-05-04 01:35 | 44.11739 | -77.52723 | 277 ft | 5 kts | 204° |
| 2026-05-04 01:35 | 44.11719 | -77.52735 | 277 ft | 6 kts | 201° |